Time;durP1;ratioP1;P1;durP2;ratioP2;P2;SDS_P1;SDS_P2;PMS_P1;PMS_P2;Temp;Humidity;BMP_temperature;BMP_pressure;BME280_temperature;BME280_humidity;BME280_pressure;Samples;Min_cycle;Max_cycle;Signal;HPM_P1;HPM_P2
2022/03/26 00:00:31;;;;;;;;;;;7.60;99.90;;;;;;5054100;28;19931;-61
2022/03/26 00:02:57;;;;;;;;;;;7.60;99.90;;;;;;5048487;28;19913;-64
2022/03/26 00:05:23;;;;;;;;;;;7.60;99.90;;;;;;5069908;28;20095;-62
2022/03/26 00:07:48;;;;;;;;;;;7.50;99.90;;;;;;5073306;28;19940;-63
2022/03/26 00:10:14;;;;;;;;;;;7.50;99.90;;;;;;5071489;28;19984;-62
2022/03/26 00:12:40;;;;;;;;;;;7.50;99.90;;;;;;5071685;28;19920;-62
2022/03/26 00:15:07;;;;;;;;;;;7.50;99.90;;;;;;5078226;28;19900;-62
2022/03/26 00:17:33;;;;;;;;;;;7.40;99.90;;;;;;5079367;28;19915;-62
2022/03/26 00:19:59;;;;;;;;;;;7.30;99.90;;;;;;5064886;28;19948;-62
2022/03/26 00:22:24;;;;;;;;;;;7.30;99.90;;;;;;5066426;28;19930;-62
2022/03/26 00:24:50;;;;;;;;;;;7.30;99.90;;;;;;5071603;28;19908;-61
2022/03/26 00:27:17;;;;;;;;;;;7.30;99.90;;;;;;5064418;28;19917;-61
2022/03/26 00:29:43;;;;;;;;;;;7.30;99.90;;;;;;5067742;28;19913;-62
2022/03/26 00:32:09;;;;;;;;;;;7.20;99.90;;;;;;5048843;28;19958;-63
2022/03/26 00:34:34;;;;;;;;;;;7.10;99.90;;;;;;5062801;28;19916;-63
2022/03/26 00:37:00;;;;;;;;;;;7.10;99.90;;;;;;5042933;28;19963;-61
2022/03/26 00:39:26;;;;;;;;;;;7.10;99.90;;;;;;5058320;28;20898;-62
2022/03/26 00:41:52;;;;;;;;;;;7.00;99.90;;;;;;5054845;28;19931;-62
2022/03/26 00:44:18;;;;;;;;;;;7.00;99.90;;;;;;5054151;28;19915;-61
2022/03/26 00:46:46;;;;;;;;;;;7.00;99.90;;;;;;5050945;28;19908;-62
2022/03/26 00:49:14;;;;;;;;;;;6.90;99.90;;;;;;5052252;28;19959;-64
2022/03/26 00:51:40;;;;;;;;;;;6.90;99.90;;;;;;5055215;28;19913;-62
2022/03/26 00:54:08;;;;;;;;;;;6.90;99.90;;;;;;5064966;28;19909;-63
2022/03/26 00:56:38;;;;;;;;;;;6.90;99.90;;;;;;5035410;28;19909;-62
2022/03/26 00:59:04;;;;;;;;;;;6.90;99.90;;;;;;5066246;28;19955;-62
2022/03/26 01:01:31;;;;;;;;;;;6.90;99.90;;;;;;5037705;28;20339;-63
2022/03/26 01:03:57;;;;;;;;;;;6.90;99.90;;;;;;5048252;28;19966;-63
2022/03/26 01:06:23;;;;;;;;;;;6.90;99.90;;;;;;5051374;28;19944;-68
2022/03/26 01:08:49;;;;;;;;;;;6.90;99.90;;;;;;5038724;28;19913;-62
2022/03/26 01:11:15;;;;;;;;;;;6.90;99.90;;;;;;5040291;28;19913;-62
2022/03/26 01:13:41;;;;;;;;;;;6.90;99.90;;;;;;5042779;28;19996;-63
2022/03/26 01:16:06;;;;;;;;;;;6.80;99.90;;;;;;5048660;28;19963;-62
2022/03/26 01:18:33;;;;;;;;;;;6.70;99.90;;;;;;5045571;28;19909;-62
2022/03/26 01:20:59;;;;;;;;;;;6.60;99.90;;;;;;5043956;28;19915;-62
2022/03/26 01:23:25;;;;;;;;;;;6.60;99.90;;;;;;5031606;28;19948;-62
2022/03/26 01:25:50;;;;;;;;;;;6.60;99.90;;;;;;5047590;28;19928;-61
2022/03/26 01:28:16;;;;;;;;;;;6.50;99.90;;;;;;5030924;28;19916;-63
2022/03/26 01:30:41;;;;;;;;;;;6.50;99.90;;;;;;5042403;28;19983;-62
2022/03/26 01:33:07;;;;;;;;;;;6.40;99.90;;;;;;5045828;28;20067;-61
2022/03/26 01:35:32;;;;;;;;;;;6.40;99.90;;;;;;5038930;28;20481;-62
2022/03/26 01:38:04;;;;;;;;;;;6.40;99.90;;;;;;5037478;28;19909;-62
2022/03/26 01:40:30;;;;;;;;;;;6.40;99.90;;;;;;5050949;28;20003;-64
2022/03/26 01:42:55;;;;;;;;;;;6.40;99.90;;;;;;5046872;28;20358;-62
2022/03/26 01:45:21;;;;;;;;;;;6.30;99.90;;;;;;5039807;28;19909;-62
2022/03/26 01:47:47;;;;;;;;;;;6.20;99.90;;;;;;5050317;28;20389;-62
2022/03/26 01:50:12;;;;;;;;;;;6.20;99.90;;;;;;5042856;28;19913;-62
2022/03/26 01:52:38;;;;;;;;;;;6.10;99.90;;;;;;5044040;28;19921;-63
2022/03/26 01:55:04;;;;;;;;;;;6.10;99.90;;;;;;5047073;28;19909;-62
2022/03/26 01:57:30;;;;;;;;;;;6.00;99.90;;;;;;5056198;28;19917;-61
2022/03/26 01:59:55;;;;;;;;;;;5.90;99.90;;;;;;5042813;28;19951;-61
2022/03/26 02:02:23;;;;;;;;;;;5.80;99.90;;;;;;5053373;28;19915;-61
2022/03/26 02:04:49;;;;;;;;;;;5.70;99.90;;;;;;5056626;28;19924;-62
2022/03/26 02:07:15;;;;;;;;;;;5.70;99.90;;;;;;5053426;28;19901;-61
2022/03/26 02:09:43;;;;;;;;;;;5.70;99.90;;;;;;5038584;28;20281;-61
2022/03/26 02:12:22;;;;;;;;;;;5.70;99.90;;;;;;5034521;28;20374;-60
2022/03/26 02:14:48;;;;;;;;;;;5.60;99.90;;;;;;5027558;28;19916;-61
2022/03/26 02:17:13;;;;;;;;;;;5.60;99.90;;;;;;5035012;28;19909;-61
2022/03/26 02:19:39;;;;;;;;;;;5.60;99.90;;;;;;5035995;28;19909;-61
2022/03/26 02:22:05;;;;;;;;;;;5.60;99.90;;;;;;5033153;28;19962;-62
2022/03/26 02:24:30;;;;;;;;;;;5.60;99.90;;;;;;5031003;28;19916;-61
2022/03/26 02:26:56;;;;;;;;;;;5.60;99.90;;;;;;5032219;28;19909;-61
2022/03/26 02:29:22;;;;;;;;;;;5.60;99.90;;;;;;5033328;28;19913;-62
2022/03/26 02:31:50;;;;;;;;;;;5.60;99.90;;;;;;5027442;28;20005;-60
2022/03/26 02:34:16;;;;;;;;;;;5.50;99.90;;;;;;5029570;28;20359;-62
2022/03/26 02:36:41;;;;;;;;;;;5.50;99.90;;;;;;5037873;28;19920;-62
2022/03/26 02:39:07;;;;;;;;;;;5.50;99.90;;;;;;5036542;28;19909;-60
2022/03/26 02:41:34;;;;;;;;;;;5.50;99.90;;;;;;5034053;28;19909;-62
2022/03/26 02:44:00;;;;;;;;;;;5.40;99.90;;;;;;5041186;28;19912;-62
2022/03/26 02:46:25;;;;;;;;;;;5.40;99.90;;;;;;5030940;28;20356;-62
2022/03/26 02:48:51;;;;;;;;;;;5.30;99.90;;;;;;5034925;28;19944;-62
2022/03/26 02:51:17;;;;;;;;;;;5.30;99.90;;;;;;5029488;28;19914;-62
2022/03/26 02:53:42;;;;;;;;;;;5.30;99.90;;;;;;5033035;28;19920;-62
2022/03/26 02:56:08;;;;;;;;;;;5.20;99.90;;;;;;5032622;28;19956;-62
2022/03/26 02:58:33;;;;;;;;;;;5.20;99.90;;;;;;5032623;28;19912;-62
2022/03/26 03:00:59;;;;;;;;;;;5.10;99.90;;;;;;5050528;28;19916;-62
2022/03/26 03:03:24;;;;;;;;;;;5.20;99.90;;;;;;5048120;28;19909;-61
2022/03/26 03:05:50;;;;;;;;;;;5.30;99.90;;;;;;5052244;28;19924;-61
2022/03/26 03:08:15;;;;;;;;;;;5.40;99.90;;;;;;5055514;28;20404;-62
2022/03/26 03:10:42;;;;;;;;;;;5.40;99.90;;;;;;5055009;28;21362;-61
2022/03/26 03:13:08;;;;;;;;;;;5.60;99.90;;;;;;5054317;28;20332;-61
2022/03/26 03:15:34;;;;;;;;;;;5.60;99.90;;;;;;5054636;28;20354;-61
2022/03/26 03:18:00;;;;;;;;;;;5.60;99.90;;;;;;5055794;28;19909;-61
2022/03/26 03:20:25;;;;;;;;;;;5.50;99.90;;;;;;5055198;28;19908;-60
2022/03/26 03:22:51;;;;;;;;;;;5.50;99.90;;;;;;5038954;28;19939;-61
2022/03/26 03:25:16;;;;;;;;;;;5.40;99.90;;;;;;5056192;28;19916;-62
2022/03/26 03:27:42;;;;;;;;;;;5.40;99.90;;;;;;5057205;28;19993;-62
2022/03/26 03:30:08;;;;;;;;;;;5.40;99.90;;;;;;5056383;28;19967;-60
2022/03/26 03:32:34;;;;;;;;;;;5.40;99.90;;;;;;5054176;28;20366;-60
2022/03/26 03:34:59;;;;;;;;;;;5.40;99.90;;;;;;5051284;28;19948;-61
2022/03/26 03:37:26;;;;;;;;;;;5.40;99.90;;;;;;5057280;28;19912;-61
2022/03/26 03:39:51;;;;;;;;;;;5.40;99.90;;;;;;5054035;28;19930;-60
2022/03/26 03:42:17;;;;;;;;;;;5.40;99.90;;;;;;5053691;28;20438;-62
2022/03/26 03:44:42;;;;;;;;;;;5.40;99.90;;;;;;5054178;28;19939;-61
2022/03/26 03:47:08;;;;;;;;;;;5.40;99.90;;;;;;5052457;28;19909;-62
2022/03/26 03:49:34;;;;;;;;;;;5.40;99.90;;;;;;5045782;28;19913;-61
2022/03/26 03:51:59;;;;;;;;;;;5.50;99.90;;;;;;5050841;28;19917;-62
2022/03/26 03:54:25;;;;;;;;;;;5.60;99.90;;;;;;5047919;28;19909;-62
2022/03/26 03:56:51;;;;;;;;;;;5.70;99.90;;;;;;5050912;28;20271;-61
2022/03/26 03:59:17;;;;;;;;;;;5.70;99.90;;;;;;5030059;28;19995;-61
2022/03/26 04:01:43;;;;;;;;;;;5.70;99.90;;;;;;5035268;28;19916;-61
2022/03/26 04:04:08;;;;;;;;;;;5.70;99.90;;;;;;5046428;28;19948;-62
2022/03/26 04:06:34;;;;;;;;;;;5.70;99.90;;;;;;5051585;28;19909;-61
2022/03/26 04:08:59;;;;;;;;;;;5.60;99.90;;;;;;5051473;28;20012;-61
2022/03/26 04:11:25;;;;;;;;;;;5.60;99.90;;;;;;5053698;28;19920;-61
2022/03/26 04:13:53;;;;;;;;;;;5.60;99.90;;;;;;5051117;28;20007;-61
2022/03/26 04:16:19;;;;;;;;;;;5.60;99.90;;;;;;5054109;28;20412;-61
2022/03/26 04:18:44;;;;;;;;;;;5.70;99.90;;;;;;5046555;28;19910;-61
2022/03/26 04:21:10;;;;;;;;;;;5.70;99.90;;;;;;5052217;28;19924;-62
2022/03/26 04:23:35;;;;;;;;;;;5.80;99.90;;;;;;5048499;28;19909;-61
2022/03/26 04:26:01;;;;;;;;;;;5.80;99.90;;;;;;5054083;28;19908;-62
2022/03/26 04:28:27;;;;;;;;;;;5.80;99.90;;;;;;5058952;28;20332;-61
2022/03/26 04:30:53;;;;;;;;;;;5.90;99.90;;;;;;5039346;28;19991;-61
2022/03/26 04:33:18;;;;;;;;;;;5.90;99.90;;;;;;5053710;28;19916;-61
2022/03/26 04:35:44;;;;;;;;;;;6.00;99.90;;;;;;5057541;28;19912;-60
2022/03/26 04:38:09;;;;;;;;;;;6.00;99.90;;;;;;5056823;28;19912;-61
2022/03/26 04:40:35;;;;;;;;;;;6.00;99.90;;;;;;5038548;28;19972;-61
2022/03/26 04:43:01;;;;;;;;;;;6.00;99.90;;;;;;5038168;28;19909;-61
2022/03/26 04:45:26;;;;;;;;;;;6.10;99.90;;;;;;5052356;28;19908;-61
2022/03/26 04:47:52;;;;;;;;;;;6.10;99.90;;;;;;5052738;28;19909;-61
2022/03/26 04:50:18;;;;;;;;;;;6.10;99.90;;;;;;5053615;28;19961;-61
2022/03/26 04:52:43;;;;;;;;;;;6.10;99.90;;;;;;5055046;28;19916;-61
2022/03/26 04:55:13;;;;;;;;;;;6.00;99.90;;;;;;5056327;28;19957;-61
2022/03/26 04:57:39;;;;;;;;;;;6.00;99.90;;;;;;5056924;28;19941;-62
2022/03/26 05:00:06;;;;;;;;;;;6.00;99.90;;;;;;5033063;28;19917;-61
2022/03/26 05:02:31;;;;;;;;;;;6.00;99.90;;;;;;5054461;28;19908;-61
2022/03/26 05:04:57;;;;;;;;;;;5.90;99.90;;;;;;5031385;28;19915;-61
2022/03/26 05:10:06;;;;;;;;;;;5.90;99.90;;;;;;5054140;28;19919;-61
2022/03/26 05:12:32;;;;;;;;;;;5.90;99.90;;;;;;5055841;28;19913;-61
2022/03/26 05:14:58;;;;;;;;;;;5.90;99.90;;;;;;5054307;28;20128;-62
2022/03/26 05:17:23;;;;;;;;;;;5.80;99.90;;;;;;5057199;28;19909;-62
2022/03/26 05:19:49;;;;;;;;;;;5.90;99.90;;;;;;5045248;28;19952;-62
2022/03/26 05:22:14;;;;;;;;;;;5.90;99.90;;;;;;5062687;28;19909;-62
2022/03/26 05:24:40;;;;;;;;;;;5.90;99.90;;;;;;5056515;28;19909;-61
2022/03/26 05:27:06;;;;;;;;;;;5.90;99.90;;;;;;5056457;28;19936;-62
2022/03/26 05:29:32;;;;;;;;;;;5.90;99.90;;;;;;5051860;28;19920;-61
2022/03/26 05:31:59;;;;;;;;;;;5.90;99.90;;;;;;5044296;28;19913;-61
2022/03/26 05:34:24;;;;;;;;;;;5.80;99.90;;;;;;5051994;28;19917;-62
2022/03/26 05:36:50;;;;;;;;;;;5.80;99.90;;;;;;5051568;28;19941;-62
2022/03/26 05:39:16;;;;;;;;;;;5.90;99.90;;;;;;5051642;28;19962;-63
2022/03/26 05:41:42;;;;;;;;;;;5.90;99.90;;;;;;5052094;28;19931;-62
2022/03/26 05:44:08;;;;;;;;;;;6.00;99.90;;;;;;5044167;28;19909;-62
2022/03/26 05:46:33;;;;;;;;;;;5.90;99.90;;;;;;5049076;28;19908;-61
2022/03/26 05:48:59;;;;;;;;;;;5.90;99.90;;;;;;5051400;28;20317;-60
2022/03/26 05:51:25;;;;;;;;;;;6.00;99.90;;;;;;5046544;28;20393;-61
2022/03/26 05:53:50;;;;;;;;;;;6.00;99.90;;;;;;5045640;28;19909;-62
2022/03/26 05:56:16;;;;;;;;;;;5.90;99.90;;;;;;5051486;28;19909;-61
2022/03/26 05:58:42;;;;;;;;;;;5.90;99.90;;;;;;5051304;28;19991;-60
2022/03/26 06:01:07;;;;;;;;;;;6.00;99.90;;;;;;5051139;28;19964;-60
2022/03/26 06:03:33;;;;;;;;;;;6.00;99.90;;;;;;5051155;28;20317;-61
2022/03/26 06:05:58;;;;;;;;;;;6.00;99.90;;;;;;5052589;28;20411;-61
2022/03/26 06:08:24;;;;;;;;;;;5.90;99.90;;;;;;5036070;28;19916;-61
2022/03/26 06:10:49;;;;;;;;;;;5.90;99.90;;;;;;5032521;28;19921;-61
2022/03/26 06:13:15;;;;;;;;;;;6.00;99.90;;;;;;5059588;28;19935;-63
2022/03/26 06:15:42;;;;;;;;;;;5.90;99.90;;;;;;5066493;28;19916;-61
2022/03/26 06:18:08;;;;;;;;;;;5.90;99.90;;;;;;5057791;28;19959;-62
2022/03/26 06:20:33;;;;;;;;;;;6.00;99.90;;;;;;5068166;28;19909;-61
2022/03/26 06:22:59;;;;;;;;;;;5.90;99.90;;;;;;5070009;28;19937;-61
2022/03/26 06:25:25;;;;;;;;;;;5.90;99.90;;;;;;5069543;28;19909;-61
2022/03/26 06:27:50;;;;;;;;;;;6.00;99.90;;;;;;5074437;28;19992;-61
2022/03/26 06:30:16;;;;;;;;;;;5.90;99.90;;;;;;5075369;28;19912;-61
2022/03/26 06:32:41;;;;;;;;;;;6.00;99.90;;;;;;5069549;28;19901;-61
2022/03/26 06:35:07;;;;;;;;;;;6.00;99.90;;;;;;5070569;28;19909;-61
2022/03/26 06:37:33;;;;;;;;;;;6.00;99.90;;;;;;5070725;28;19908;-61
2022/03/26 06:39:59;;;;;;;;;;;6.00;99.90;;;;;;5068581;28;19908;-60
2022/03/26 06:42:25;;;;;;;;;;;5.90;99.90;;;;;;5072186;28;19943;-61
2022/03/26 06:44:52;;;;;;;;;;;5.90;99.90;;;;;;5072387;28;19912;-60
2022/03/26 06:47:17;;;;;;;;;;;5.90;99.90;;;;;;5064484;28;19896;-61
2022/03/26 06:49:43;;;;;;;;;;;6.00;99.90;;;;;;5054549;28;19920;-61
2022/03/26 06:52:09;;;;;;;;;;;6.10;99.90;;;;;;5068347;28;19920;-62
2022/03/26 06:54:34;;;;;;;;;;;6.10;99.90;;;;;;5065732;28;19965;-60
2022/03/26 06:57:00;;;;;;;;;;;6.10;99.90;;;;;;5052655;28;20289;-60
2022/03/26 06:59:25;;;;;;;;;;;6.20;99.90;;;;;;5058187;28;20418;-63
2022/03/26 07:01:51;;;;;;;;;;;6.10;99.90;;;;;;5039752;28;19909;-61
2022/03/26 07:04:17;;;;;;;;;;;6.20;99.90;;;;;;5044049;28;20369;-61
2022/03/26 07:06:43;;;;;;;;;;;6.20;99.90;;;;;;5039023;28;19931;-61
2022/03/26 07:09:08;;;;;;;;;;;6.30;99.90;;;;;;5039189;28;20003;-60
2022/03/26 07:11:34;;;;;;;;;;;6.40;99.90;;;;;;5038671;28;19917;-61
2022/03/26 07:13:59;;;;;;;;;;;6.40;99.90;;;;;;5037370;28;19949;-61
2022/03/26 07:16:25;;;;;;;;;;;6.40;99.90;;;;;;5040353;28;19921;-61
2022/03/26 07:18:50;;;;;;;;;;;6.40;99.90;;;;;;5039276;28;19928;-60
2022/03/26 07:21:16;;;;;;;;;;;6.50;99.90;;;;;;5043373;28;19896;-63
2022/03/26 07:23:42;;;;;;;;;;;6.60;99.90;;;;;;5035235;28;19897;-62
2022/03/26 07:26:07;;;;;;;;;;;6.80;99.90;;;;;;5039184;28;19913;-61
2022/03/26 07:28:33;;;;;;;;;;;7.00;99.90;;;;;;5034344;28;19923;-61
2022/03/26 07:30:58;;;;;;;;;;;7.00;99.90;;;;;;5030477;28;19921;-63
2022/03/26 07:33:24;;;;;;;;;;;7.00;99.90;;;;;;5029745;28;20519;-63
2022/03/26 07:35:49;;;;;;;;;;;7.10;99.90;;;;;;5029397;28;19916;-63
2022/03/26 07:38:15;;;;;;;;;;;7.20;99.90;;;;;;5049345;28;19913;-62
2022/03/26 07:40:41;;;;;;;;;;;7.30;99.90;;;;;;5056149;28;20362;-63
2022/03/26 07:43:07;;;;;;;;;;;7.40;99.90;;;;;;5046678;28;19919;-62
2022/03/26 07:45:33;;;;;;;;;;;7.50;99.90;;;;;;5050213;28;20307;-62
2022/03/26 07:47:59;;;;;;;;;;;7.60;99.90;;;;;;5043496;28;19924;-62
2022/03/26 07:50:25;;;;;;;;;;;7.70;99.90;;;;;;5053286;28;19919;-62
2022/03/26 07:52:50;;;;;;;;;;;7.80;99.90;;;;;;5049071;28;19932;-65
2022/03/26 07:55:16;;;;;;;;;;;7.80;99.90;;;;;;5043270;28;19936;-63
2022/03/26 07:57:42;;;;;;;;;;;7.80;99.90;;;;;;5044566;28;19909;-63
2022/03/26 08:00:09;;;;;;;;;;;7.90;99.90;;;;;;5053729;28;19927;-62
2022/03/26 08:02:34;;;;;;;;;;;8.00;99.90;;;;;;5057784;28;19916;-61
2022/03/26 08:05:00;;;;;;;;;;;8.10;99.90;;;;;;5051109;28;19913;-64
2022/03/26 08:07:27;;;;;;;;;;;8.10;99.90;;;;;;5070474;28;19916;-62
2022/03/26 08:09:52;;;;;;;;;;;8.10;99.90;;;;;;5076880;28;20023;-63
2022/03/26 08:12:18;;;;;;;;;;;8.30;99.90;;;;;;5066253;28;19912;-62
2022/03/26 08:14:43;;;;;;;;;;;8.40;99.90;;;;;;5078981;28;19916;-63
2022/03/26 08:17:09;;;;;;;;;;;8.40;99.90;;;;;;5071903;28;20148;-62
2022/03/26 08:19:35;;;;;;;;;;;8.50;99.90;;;;;;5059058;28;19908;-62
2022/03/26 08:22:01;;;;;;;;;;;8.60;99.90;;;;;;5074535;28;19932;-62
2022/03/26 08:24:27;;;;;;;;;;;8.70;99.90;;;;;;5067116;28;19907;-64
2022/03/26 08:26:54;;;;;;;;;;;8.70;99.90;;;;;;5076437;28;19901;-63
2022/03/26 08:29:19;;;;;;;;;;;8.80;99.90;;;;;;5073987;28;19912;-63
2022/03/26 08:31:45;;;;;;;;;;;8.90;99.90;;;;;;5079403;28;19900;-65
2022/03/26 08:34:11;;;;;;;;;;;9.00;99.90;;;;;;5078553;28;19907;-63
2022/03/26 08:36:37;;;;;;;;;;;9.10;99.90;;;;;;5074361;28;19935;-64
2022/03/26 08:39:03;;;;;;;;;;;9.10;99.90;;;;;;5051461;28;19913;-62
2022/03/26 08:41:29;;;;;;;;;;;9.20;99.90;;;;;;5056805;28;20369;-63
2022/03/26 08:43:55;;;;;;;;;;;9.30;99.90;;;;;;5070698;28;19901;-63
2022/03/26 08:46:21;;;;;;;;;;;9.40;99.90;;;;;;5061587;28;19909;-63
2022/03/26 08:48:47;;;;;;;;;;;9.60;99.90;;;;;;5072002;28;19917;-66
2022/03/26 08:51:13;;;;;;;;;;;9.80;99.90;;;;;;5051670;28;19927;-64
2022/03/26 08:53:39;;;;;;;;;;;9.90;99.90;;;;;;5070072;28;19920;-62
2022/03/26 08:56:06;;;;;;;;;;;10.20;99.90;;;;;;5079668;28;19904;-63
2022/03/26 08:58:32;;;;;;;;;;;10.20;99.90;;;;;;5081690;28;19931;-64
2022/03/26 09:00:57;;;;;;;;;;;10.20;99.90;;;;;;5063015;28;19927;-62
2022/03/26 09:03:23;;;;;;;;;;;10.30;99.90;;;;;;5062247;28;20234;-62
2022/03/26 09:05:49;;;;;;;;;;;10.40;99.90;;;;;;5051076;28;19909;-62
2022/03/26 09:08:15;;;;;;;;;;;10.40;99.90;;;;;;5038966;28;19986;-63
2022/03/26 09:10:41;;;;;;;;;;;10.60;99.90;;;;;;5056347;28;20409;-62
2022/03/26 09:13:07;;;;;;;;;;;10.80;99.90;;;;;;5053865;28;19931;-62
2022/03/26 09:15:33;;;;;;;;;;;10.90;99.90;;;;;;5057052;28;20382;-62
2022/03/26 09:17:59;;;;;;;;;;;10.90;99.90;;;;;;5049310;28;19916;-62
2022/03/26 09:20:25;;;;;;;;;;;11.00;99.90;;;;;;5050354;28;19915;-61
2022/03/26 09:22:51;;;;;;;;;;;11.20;99.90;;;;;;5057826;28;19908;-62
2022/03/26 09:25:18;;;;;;;;;;;11.30;99.90;;;;;;5057765;28;19962;-61
2022/03/26 09:27:44;;;;;;;;;;;11.30;99.90;;;;;;5060154;28;19908;-63
2022/03/26 09:30:10;;;;;;;;;;;11.40;99.90;;;;;;5052101;28;19912;-62
2022/03/26 09:32:35;;;;;;;;;;;11.50;99.90;;;;;;5053948;28;19920;-62
2022/03/26 09:35:01;;;;;;;;;;;11.60;99.90;;;;;;5061655;28;19909;-62
2022/03/26 09:37:27;;;;;;;;;;;11.70;99.90;;;;;;5052459;28;19929;-62
2022/03/26 09:39:54;;;;;;;;;;;11.80;99.90;;;;;;5054985;28;19909;-62
2022/03/26 09:42:22;;;;;;;;;;;11.70;99.90;;;;;;5061621;28;19920;-62
2022/03/26 09:44:48;;;;;;;;;;;11.80;99.90;;;;;;5054247;28;19916;-66
2022/03/26 09:47:14;;;;;;;;;;;11.90;99.90;;;;;;5059591;28;20316;-61
2022/03/26 09:49:39;;;;;;;;;;;12.00;99.90;;;;;;5048349;28;19920;-62
2022/03/26 09:52:06;;;;;;;;;;;12.20;99.90;;;;;;5032990;28;19912;-63
2022/03/26 09:54:33;;;;;;;;;;;12.10;99.90;;;;;;5055536;28;20337;-61
2022/03/26 09:56:58;;;;;;;;;;;12.20;99.90;;;;;;5049571;28;19909;-63
2022/03/26 09:59:24;;;;;;;;;;;12.20;99.90;;;;;;5051971;28;19924;-61
2022/03/26 10:01:50;;;;;;;;;;;12.30;99.90;;;;;;5054297;28;19913;-64
2022/03/26 10:04:16;;;;;;;;;;;12.30;99.90;;;;;;5059616;28;19908;-62
2022/03/26 10:06:52;;;;;;;;;;;12.40;99.90;;;;;;5052783;28;19908;-61
2022/03/26 10:09:32;;;;;;;;;;;12.50;99.90;;;;;;5063599;28;19929;-61
2022/03/26 10:11:59;;;;;;;;;;;12.60;99.90;;;;;;5053496;28;20015;-61
2022/03/26 10:14:35;;;;;;;;;;;12.70;99.90;;;;;;5037684;28;19931;-62
2022/03/26 10:17:07;;;;;;;;;;;12.90;99.90;;;;;;5047310;28;19908;-62
2022/03/26 10:19:34;;;;;;;;;;;13.00;99.90;;;;;;5069937;28;19931;-61
2022/03/26 10:22:00;;;;;;;;;;;13.10;99.90;;;;;;5038259;28;20265;-62
2022/03/26 10:24:26;;;;;;;;;;;13.20;99.90;;;;;;5057182;28;19909;-63
2022/03/26 10:26:51;;;;;;;;;;;13.30;99.90;;;;;;5038819;28;20366;-62
2022/03/26 10:29:17;;;;;;;;;;;13.40;99.90;;;;;;5054864;28;19920;-62
2022/03/26 10:34:26;;;;;;;;;;;13.60;99.90;;;;;;5045942;28;19931;-61
2022/03/26 10:36:55;;;;;;;;;;;13.80;99.90;;;;;;5035113;28;20343;-62
2022/03/26 10:39:22;;;;;;;;;;;14.00;99.90;;;;;;5036359;28;19991;-62
2022/03/26 10:41:48;;;;;;;;;;;14.00;99.40;;;;;;5062411;28;19919;-62
2022/03/26 10:44:14;;;;;;;;;;;14.00;99.80;;;;;;5057297;28;19909;-62
2022/03/26 10:46:44;;;;;;;;;;;14.10;99.60;;;;;;5037283;28;19913;-63
2022/03/26 10:49:11;;;;;;;;;;;14.20;99.10;;;;;;5048201;28;20251;-63
2022/03/26 10:51:38;;;;;;;;;;;14.20;98.70;;;;;;5030356;28;19936;-62
2022/03/26 10:54:08;;;;;;;;;;;14.20;98.60;;;;;;5044535;28;19916;-62
2022/03/26 10:56:35;;;;;;;;;;;14.30;99.10;;;;;;5054588;28;19955;-65
2022/03/26 10:59:00;;;;;;;;;;;14.40;98.60;;;;;;5052397;28;19992;-62
2022/03/26 11:01:26;;;;;;;;;;;14.50;98.30;;;;;;5029715;28;19916;-64
2022/03/26 11:03:52;;;;;;;;;;;14.50;96.50;;;;;;5054535;28;19902;-64
2022/03/26 11:06:20;;;;;;;;;;;14.50;96.20;;;;;;5048954;28;19901;-63
2022/03/26 11:08:47;;;;;;;;;;;14.70;95.60;;;;;;5040335;28;19921;-64
2022/03/26 11:11:14;;;;;;;;;;;14.70;95.20;;;;;;5044876;28;19902;-63
2022/03/26 11:13:45;;;;;;;;;;;14.80;95.60;;;;;;5040089;28;19904;-63
2022/03/26 11:16:34;;;;;;;;;;;14.90;95.70;;;;;;5035078;28;19901;-62
2022/03/26 11:19:13;;;;;;;;;;;14.90;95.40;;;;;;5059120;28;19901;-63
2022/03/26 11:21:39;;;;;;;;;;;15.00;95.20;;;;;;5034942;28;19901;-64
2022/03/26 11:24:14;;;;;;;;;;;15.00;95.60;;;;;;5050137;28;20061;-64
2022/03/26 11:26:48;;;;;;;;;;;15.10;96.00;;;;;;5048273;28;19901;-62
2022/03/26 11:29:16;;;;;;;;;;;15.10;96.00;;;;;;5033951;28;19929;-63
2022/03/26 11:31:57;;;;;;;;;;;15.10;95.90;;;;;;5035086;28;19920;-62
2022/03/26 11:34:23;;;;;;;;;;;15.10;96.70;;;;;;5037381;28;19920;-63
2022/03/26 11:36:51;;;;;;;;;;;15.30;96.90;;;;;;5041936;28;19912;-65
2022/03/26 11:39:18;;;;;;;;;;;15.40;96.50;;;;;;5034313;28;19920;-62
2022/03/26 11:41:47;;;;;;;;;;;15.40;96.90;;;;;;5039401;28;19917;-61
2022/03/26 11:44:15;;;;;;;;;;;15.40;96.90;;;;;;5039919;28;19919;-62
2022/03/26 11:52:19;;;;;;;;;;;15.50;96.70;;;;;;5045343;28;19956;-62
2022/03/26 11:54:45;;;;;;;;;;;15.60;96.60;;;;;;5050223;28;20026;-63
2022/03/26 11:57:14;;;;;;;;;;;15.50;97.20;;;;;;5053990;28;19901;-64
2022/03/26 11:59:41;;;;;;;;;;;15.70;97.40;;;;;;5055188;28;20438;-62
2022/03/26 12:02:16;;;;;;;;;;;15.80;97.00;;;;;;5069666;28;19940;-62
2022/03/26 12:04:49;;;;;;;;;;;15.80;97.00;;;;;;5054336;28;19901;-64
2022/03/26 12:07:18;;;;;;;;;;;16.00;97.30;;;;;;5051128;28;19929;-63
2022/03/26 12:09:43;;;;;;;;;;;15.90;96.60;;;;;;5055634;28;19928;-63
2022/03/26 12:12:13;;;;;;;;;;;16.00;96.80;;;;;;5071724;28;19968;-63
2022/03/26 12:14:57;;;;;;;;;;;16.10;96.40;;;;;;5069072;28;19923;-65
2022/03/26 12:17:43;;;;;;;;;;;16.20;96.30;;;;;;5072860;28;19900;-65
2022/03/26 12:20:19;;;;;;;;;;;16.10;96.30;;;;;;5073105;28;19901;-69
2022/03/26 12:22:44;;;;;;;;;;;16.00;96.60;;;;;;5055283;28;19913;-62
2022/03/26 12:25:11;;;;;;;;;;;16.20;96.40;;;;;;5072752;28;19981;-64
2022/03/26 12:27:37;;;;;;;;;;;16.20;96.60;;;;;;5067221;28;19912;-61
2022/03/26 12:30:03;;;;;;;;;;;16.20;96.00;;;;;;5067031;28;19923;-63
2022/03/26 12:32:30;;;;;;;;;;;16.30;96.40;;;;;;5052991;28;19904;-64
2022/03/26 12:35:05;;;;;;;;;;;16.40;95.80;;;;;;5062374;28;19901;-63
2022/03/26 12:37:32;;;;;;;;;;;16.30;95.70;;;;;;5027131;28;19916;-62
2022/03/26 12:39:57;;;;;;;;;;;16.30;95.90;;;;;;5039472;28;19909;-61
2022/03/26 12:42:24;;;;;;;;;;;16.50;95.60;;;;;;5044930;28;19915;-62
2022/03/26 12:44:50;;;;;;;;;;;16.50;96.00;;;;;;5042275;28;19913;-62
2022/03/26 12:47:20;;;;;;;;;;;16.50;95.60;;;;;;5038149;28;20380;-62
2022/03/26 12:49:47;;;;;;;;;;;16.50;95.50;;;;;;5053098;28;20461;-62
2022/03/26 12:52:16;;;;;;;;;;;16.50;95.00;;;;;;5043296;28;20495;-62
2022/03/26 12:54:42;;;;;;;;;;;16.60;95.00;;;;;;5050873;28;20352;-62
2022/03/26 12:57:08;;;;;;;;;;;16.60;95.00;;;;;;5055819;28;19909;-63
2022/03/26 12:59:33;;;;;;;;;;;16.50;95.30;;;;;;5057786;28;20297;-62
2022/03/26 13:02:00;;;;;;;;;;;16.60;95.00;;;;;;5062232;28;19909;-64
2022/03/26 13:04:26;;;;;;;;;;;16.70;94.70;;;;;;5053176;28;19908;-65
2022/03/26 13:06:55;;;;;;;;;;;16.70;94.60;;;;;;5051210;28;19919;-62
2022/03/26 13:09:20;;;;;;;;;;;16.90;94.00;;;;;;5056185;28;19919;-63
2022/03/26 13:11:49;;;;;;;;;;;17.00;93.80;;;;;;5046102;28;20033;-62
2022/03/26 13:14:18;;;;;;;;;;;17.00;93.90;;;;;;5067089;28;19913;-61
2022/03/26 13:16:48;;;;;;;;;;;17.00;92.70;;;;;;5047767;28;19913;-64
2022/03/26 13:19:14;;;;;;;;;;;17.20;92.80;;;;;;5050531;28;19909;-64
2022/03/26 13:21:49;;;;;;;;;;;17.30;92.40;;;;;;5055705;28;19932;-63
2022/03/26 13:24:16;;;;;;;;;;;17.20;91.60;;;;;;5053034;28;19909;-64
2022/03/26 13:26:55;;;;;;;;;;;17.20;90.80;;;;;;5057486;28;19896;-63
2022/03/26 13:29:31;;;;;;;;;;;17.20;90.90;;;;;;5063171;28;19992;-63
2022/03/26 13:31:58;;;;;;;;;;;17.20;91.30;;;;;;5041975;28;19923;-62
2022/03/26 13:34:25;;;;;;;;;;;17.20;91.90;;;;;;5056027;28;19909;-63
2022/03/26 13:36:51;;;;;;;;;;;17.40;91.80;;;;;;5057065;28;19936;-62
2022/03/26 13:39:21;;;;;;;;;;;17.50;91.40;;;;;;5048293;28;19920;-63
2022/03/26 13:41:47;;;;;;;;;;;17.60;90.90;;;;;;5064516;28;19900;-63
2022/03/26 13:44:13;;;;;;;;;;;17.70;90.70;;;;;;5066487;28;19932;-63
2022/03/26 13:46:39;;;;;;;;;;;17.80;90.80;;;;;;5067111;28;19901;-64
2022/03/26 13:49:05;;;;;;;;;;;17.80;90.80;;;;;;5070938;28;19920;-63
2022/03/26 13:51:35;;;;;;;;;;;17.70;90.50;;;;;;5050314;28;19965;-68
2022/03/26 13:54:02;;;;;;;;;;;17.80;91.50;;;;;;5058989;28;19909;-63
2022/03/26 13:56:29;;;;;;;;;;;17.80;91.10;;;;;;5051285;28;19970;-63
2022/03/26 13:58:55;;;;;;;;;;;17.80;91.40;;;;;;5049146;28;20106;-62
2022/03/26 14:01:21;;;;;;;;;;;17.80;92.10;;;;;;5029506;28;20401;-64
2022/03/26 14:03:52;;;;;;;;;;;17.80;91.80;;;;;;5035551;28;20018;-63
2022/03/26 14:06:17;;;;;;;;;;;17.90;91.00;;;;;;5034172;28;19909;-63
2022/03/26 14:08:47;;;;;;;;;;;17.90;90.90;;;;;;5039787;28;20525;-63
2022/03/26 14:11:22;;;;;;;;;;;18.00;89.50;;;;;;5045777;28;19913;-63
2022/03/26 14:13:49;;;;;;;;;;;18.00;88.10;;;;;;5051369;28;19995;-65
2022/03/26 14:16:15;;;;;;;;;;;18.00;81.90;;;;;;5033370;28;19909;-63
2022/03/26 14:18:41;;;;;;;;;;;17.90;80.50;;;;;;5046454;28;19917;-63
2022/03/26 14:21:07;;;;;;;;;;;18.00;81.50;;;;;;5050490;28;19908;-63
2022/03/26 14:23:33;;;;;;;;;;;18.10;82.00;;;;;;5049398;28;19996;-64
2022/03/26 14:25:58;;;;;;;;;;;18.20;81.90;;;;;;5052872;28;19944;-64
2022/03/26 14:28:24;;;;;;;;;;;18.30;81.80;;;;;;5054914;28;19909;-63
2022/03/26 14:30:50;;;;;;;;;;;18.20;82.10;;;;;;5032980;28;19916;-62
2022/03/26 14:33:16;;;;;;;;;;;18.20;82.20;;;;;;5044059;28;20277;-62